Wildsville, Louisiana
Current Conditions -  °F | °C
As of 2:55 PM on Saturday 25 Oct 2014 (Local Time) from KHEZ Reporting Station
Clear Clear  
Wind Chill: 79°   Ceiling: Unl
Heat Index: 80°   Visibility: 10mi
Dew Point: 57°   Wind: 7mph
Humidity: 47%   Direction: 280°W
Pressure: 30.11"   Gusts: NA
Location:  31.62°N, 91.78°W
Report Text: KHEZ 251955Z AUTO 28006KT 10SM CLR 26/14 A3011 RMK AO1
Loading
Personal Weather Stations






























Interactive Weather Map
Tropical Storm Tracking
New forecast layout! Learn more

10-Day Weather Forecast

Advertisements
Track Severe Weather on mobile